Pinheiros, Brazil
Current Conditions -  °F | °C
As of 11:00 PM on Saturday 22 Nov 2014 (Local Time) from SBVT Reporting Station
Broken Clouds Broken Clouds  
Wind Chill: 75°   Ceiling: 2500
Heat Index: 75°   Visibility: 6mi
Dew Point: 68°   Wind: 8mph
Humidity: 78%   Direction: 350°N
Pressure: 29.97"   Gusts: NA
Location:  18.37°S, 40.21°W
Report Text: SBVT 230100Z 35007KT 9999 BKN025 24/20 Q1015
Loading
Personal Weather Stations






























Interactive Weather Map New forecast layout! Learn more

10-Day Weather Forecast

Advertisements
Track Severe Weather on mobile